createdAt,value
2019-05-25T00:00:54.366Z,7.50
2019-05-25T00:03:27.887Z,7.40
2019-05-25T00:06:01.227Z,8.70
2019-05-25T00:08:34.528Z,7.70
2019-05-25T00:11:08.082Z,10.27
2019-05-25T00:13:41.812Z,11.00
2019-05-25T00:16:15.583Z,9.83
2019-05-25T00:18:49.392Z,11.13
2019-05-25T00:21:22.384Z,8.80
2019-05-25T00:24:10.890Z,10.23
2019-05-25T00:26:31.316Z,9.07
2019-05-25T00:29:05.089Z,10.23
2019-05-25T00:31:38.681Z,8.50
2019-05-25T00:34:12.640Z,9.13
2019-05-25T00:36:46.397Z,10.80
2019-05-25T00:39:20.382Z,11.17
2019-05-25T00:41:54.899Z,11.00
2019-05-25T00:44:28.916Z,11.57
2019-05-25T00:47:02.722Z,10.77
2019-05-25T00:49:35.573Z,11.83
2019-05-25T00:52:08.855Z,8.93
2019-05-25T00:54:42.132Z,14.30
2019-05-25T00:57:15.414Z,10.10
2019-05-25T00:59:49.270Z,12.73
2019-05-25T01:02:22.856Z,10.23
2019-05-25T01:04:56.467Z,13.53
2019-05-25T01:07:29.754Z,11.17
2019-05-25T01:10:03.415Z,11.20
2019-05-25T01:12:36.785Z,12.50
2019-05-25T01:15:11.752Z,14.10
2019-05-25T01:17:45.702Z,11.40
2019-05-25T01:20:21.229Z,11.07
2019-05-25T01:22:54.294Z,13.10
2019-05-25T01:25:27.863Z,11.93
2019-05-25T01:28:01.218Z,11.67
2019-05-25T01:30:35.242Z,10.90
2019-05-25T01:33:09.685Z,11.97
2019-05-25T01:35:44.603Z,14.20
2019-05-25T01:38:17.997Z,11.97
2019-05-25T01:40:51.306Z,15.73
2019-05-25T01:43:25.654Z,14.67
2019-05-25T01:45:59.791Z,11.50
2019-05-25T01:48:33.564Z,12.13
2019-05-25T01:51:07.307Z,14.10
2019-05-25T01:53:41.271Z,15.47
2019-05-25T01:56:17.389Z,13.53
2019-05-25T01:58:51.604Z,15.70
2019-05-25T02:01:25.725Z,14.73
2019-05-25T02:04:01.495Z,14.73
2019-05-25T02:06:35.187Z,13.77
2019-05-25T02:09:10.519Z,12.23
2019-05-25T02:11:44.557Z,15.00
2019-05-25T02:14:18.169Z,16.87
2019-05-25T02:16:52.207Z,12.27
2019-05-25T02:19:26.261Z,12.50
2019-05-25T02:21:59.567Z,13.60
2019-05-25T02:24:34.717Z,16.33
2019-05-25T02:27:09.498Z,16.57
2019-05-25T02:29:44.245Z,14.33
2019-05-25T02:32:17.941Z,13.87
2019-05-25T02:34:51.560Z,11.27
2019-05-25T02:37:24.816Z,19.77
2019-05-25T02:39:57.992Z,15.67
2019-05-25T02:42:31.896Z,13.67
2019-05-25T02:45:06.354Z,14.10
2019-05-25T02:47:40.091Z,21.13
2019-05-25T02:50:14.443Z,23.97
2019-05-25T02:52:48.197Z,19.80
2019-05-25T02:55:33.598Z,23.13
2019-05-25T02:57:57.179Z,21.30
2019-05-25T03:00:36.964Z,21.87
2019-05-25T03:03:10.544Z,28.70
2019-05-25T03:05:44.446Z,22.90
2019-05-25T03:08:17.680Z,21.23
2019-05-25T03:10:52.728Z,21.83
2019-05-25T03:13:31.154Z,22.47
2019-05-25T03:16:04.194Z,26.60
2019-05-25T03:18:37.419Z,27.07
2019-05-25T03:21:10.450Z,27.17
2019-05-25T03:23:43.956Z,26.17
2019-05-25T03:26:17.525Z,29.83
2019-05-25T03:28:50.717Z,28.20
2019-05-25T03:31:25.233Z,22.60
2019-05-25T03:33:59.769Z,22.60
2019-05-25T03:36:33.194Z,25.07
2019-05-25T03:39:07.999Z,27.47
2019-05-25T03:41:42.423Z,28.87
2019-05-25T03:44:15.867Z,29.47
2019-05-25T03:46:48.870Z,31.40
2019-05-25T03:49:22.349Z,37.27
2019-05-25T03:51:55.632Z,34.40
2019-05-25T03:54:29.511Z,43.13
2019-05-25T03:57:02.999Z,39.27
2019-05-25T03:59:36.202Z,33.17
2019-05-25T04:02:09.443Z,33.07
2019-05-25T04:04:42.918Z,29.87
2019-05-25T04:07:16.402Z,32.23
2019-05-25T04:09:49.775Z,30.10
2019-05-25T04:12:23.607Z,30.73
2019-05-25T04:14:57.143Z,31.30
2019-05-25T04:17:30.128Z,26.93
2019-05-25T04:20:03.324Z,24.03
2019-05-25T04:22:36.650Z,29.43
2019-05-25T04:25:10.475Z,26.87
2019-05-25T04:27:43.532Z,25.07
2019-05-25T04:30:17.120Z,19.70
2019-05-25T04:32:50.890Z,21.10
2019-05-25T04:35:24.072Z,23.07
2019-05-25T04:37:57.423Z,22.83
2019-05-25T04:40:30.589Z,27.57
2019-05-25T04:43:03.874Z,22.47
2019-05-25T04:45:36.920Z,20.23
2019-05-25T04:48:10.591Z,21.50
2019-05-25T04:50:43.859Z,21.87
2019-05-25T04:53:16.780Z,19.87
2019-05-25T04:55:50.005Z,28.17
2019-05-25T04:58:23.289Z,30.13
2019-05-25T05:00:56.394Z,38.97
2019-05-25T05:03:29.795Z,31.87
2019-05-25T05:06:03.292Z,26.53
2019-05-25T05:08:37.519Z,19.73
2019-05-25T05:11:11.057Z,18.47
2019-05-25T05:13:44.104Z,18.07
2019-05-25T05:16:17.322Z,19.40
2019-05-25T05:18:50.136Z,21.57
2019-05-25T05:21:23.510Z,23.53
2019-05-25T05:23:56.681Z,24.23
2019-05-25T05:26:29.893Z,26.50
2019-05-25T05:29:03.778Z,28.03
2019-05-25T05:31:36.436Z,25.10
2019-05-25T05:34:12.109Z,23.43
2019-05-25T05:36:45.790Z,36.03
2019-05-25T05:39:18.852Z,22.47
2019-05-25T05:41:53.975Z,23.37
2019-05-25T05:44:28.201Z,32.07
2019-05-25T05:47:03.411Z,27.70
2019-05-25T05:49:37.565Z,28.20
2019-05-25T05:52:10.370Z,25.13
2019-05-25T05:54:45.768Z,25.77
2019-05-25T05:57:19.029Z,26.37
2019-05-25T05:59:53.673Z,27.27
2019-05-25T06:02:26.901Z,24.37
2019-05-25T06:05:00.470Z,23.17
2019-05-25T06:07:34.794Z,23.43
2019-05-25T06:10:09.032Z,27.07
2019-05-25T06:12:45.244Z,23.80
2019-05-25T06:15:19.182Z,23.37
2019-05-25T06:17:52.767Z,25.87
2019-05-25T06:20:26.419Z,21.23
2019-05-25T06:23:01.494Z,23.93
2019-05-25T06:25:35.254Z,21.53
2019-05-25T06:28:10.028Z,22.20
2019-05-25T06:30:42.907Z,20.33
2019-05-25T06:33:16.008Z,28.97
2019-05-25T06:35:53.417Z,35.67
2019-05-25T06:38:26.875Z,20.87
2019-05-25T06:41:00.203Z,20.33
2019-05-25T06:43:32.867Z,22.33
2019-05-25T06:46:05.959Z,16.90
2019-05-25T06:48:38.864Z,63.30
2019-05-25T06:51:12.324Z,72.77
2019-05-25T06:53:45.657Z,82.00
2019-05-25T06:56:18.870Z,23.93
2019-05-25T06:58:51.830Z,17.67
2019-05-25T07:01:24.890Z,21.67
2019-05-25T07:03:58.358Z,17.57
2019-05-25T07:06:32.200Z,57.37
2019-05-25T07:09:07.897Z,45.73
2019-05-25T07:11:41.734Z,17.50
2019-05-25T07:14:14.793Z,17.43
2019-05-25T07:16:48.327Z,19.30
2019-05-25T07:19:22.439Z,15.37
2019-05-25T07:21:56.932Z,16.20
2019-05-25T07:24:30.537Z,53.83
2019-05-25T07:27:04.341Z,36.83
2019-05-25T07:29:38.716Z,14.53
2019-05-25T07:32:12.775Z,14.77
2019-05-25T07:34:47.150Z,15.60
2019-05-25T07:37:20.472Z,14.97
2019-05-25T07:39:54.293Z,12.80
2019-05-25T07:42:27.709Z,41.27
2019-05-25T07:45:02.937Z,26.37
2019-05-25T07:47:36.601Z,11.50
2019-05-25T07:50:11.397Z,13.37
2019-05-25T07:52:45.043Z,12.43
2019-05-25T07:55:19.505Z,11.60
2019-05-25T07:57:54.515Z,11.23
2019-05-25T08:00:28.382Z,12.80
2019-05-25T08:03:02.474Z,12.00
2019-05-25T08:05:36.270Z,11.77
2019-05-25T08:08:10.445Z,9.50
2019-05-25T08:10:43.997Z,12.23
2019-05-25T08:13:17.508Z,10.80
2019-05-25T08:15:51.538Z,11.90
2019-05-25T08:18:25.747Z,14.50
2019-05-25T08:20:59.230Z,17.93
2019-05-25T08:23:32.730Z,12.80
2019-05-25T08:26:06.561Z,12.90
2019-05-25T08:28:40.095Z,11.40
2019-05-25T08:31:13.815Z,11.53
2019-05-25T08:33:53.805Z,11.43
2019-05-25T08:36:29.725Z,16.20
2019-05-25T08:39:02.672Z,11.70
2019-05-25T08:41:36.082Z,11.87
2019-05-25T08:44:10.132Z,10.77
2019-05-25T08:46:43.431Z,10.83
2019-05-25T08:49:17.563Z,8.93
2019-05-25T08:51:54.850Z,9.00
2019-05-25T08:54:39.043Z,11.57
2019-05-25T08:57:16.181Z,8.47
2019-05-25T08:59:48.078Z,9.37
2019-05-25T09:02:22.125Z,9.53
2019-05-25T09:04:55.789Z,10.83
2019-05-25T09:07:30.875Z,7.00
2019-05-25T09:10:07.147Z,6.97
2019-05-25T09:12:41.166Z,7.10
2019-05-25T09:15:14.895Z,5.73
2019-05-25T09:17:48.632Z,7.83
2019-05-25T09:20:21.577Z,6.00
2019-05-25T09:22:55.097Z,4.83
2019-05-25T09:25:28.799Z,6.00
2019-05-25T09:28:02.344Z,7.67
2019-05-25T09:30:37.111Z,7.30
2019-05-25T09:33:10.430Z,11.33
2019-05-25T09:35:44.536Z,7.83
2019-05-25T09:38:19.908Z,24.47
2019-05-25T09:40:53.921Z,4.27
2019-05-25T09:43:33.425Z,4.30
2019-05-25T09:46:06.655Z,4.30
2019-05-25T09:48:41.928Z,5.70
2019-05-25T09:51:16.269Z,5.50
2019-05-25T09:53:49.969Z,5.20
2019-05-25T09:56:23.517Z,4.00
2019-05-25T09:58:57.537Z,5.47
2019-05-25T10:01:34.481Z,3.60
2019-05-25T10:04:09.362Z,4.00
2019-05-25T10:06:42.274Z,4.27
2019-05-25T10:09:16.061Z,9.20
2019-05-25T10:11:50.356Z,7.77
2019-05-25T10:14:24.139Z,8.70
2019-05-25T10:16:58.427Z,3.83
2019-05-25T10:19:32.127Z,3.77
2019-05-25T10:22:06.722Z,4.20
2019-05-25T10:24:40.978Z,5.33
2019-05-25T10:27:15.033Z,4.73
2019-05-25T10:29:49.260Z,4.77
2019-05-25T10:32:23.071Z,7.87
2019-05-25T10:34:56.853Z,24.53
2019-05-25T10:37:35.219Z,16.27
2019-05-25T10:40:09.860Z,5.50
2019-05-25T10:42:43.669Z,5.37
2019-05-25T10:45:17.613Z,4.73
2019-05-25T10:47:52.874Z,4.27
2019-05-25T10:50:27.901Z,4.33
2019-05-25T10:53:02.087Z,4.50
2019-05-25T10:55:36.390Z,6.83
2019-05-25T10:58:10.069Z,7.70
2019-05-25T11:00:44.756Z,4.87
2019-05-25T11:03:19.321Z,3.10
2019-05-25T11:05:58.218Z,3.03
2019-05-25T11:08:35.141Z,7.13
2019-05-25T11:11:09.108Z,4.23
2019-05-25T11:13:42.793Z,15.20
2019-05-25T11:16:16.345Z,2.60
2019-05-25T11:18:50.787Z,7.03
2019-05-25T11:21:26.332Z,3.00
2019-05-25T11:24:01.355Z,4.70
2019-05-25T11:26:35.666Z,3.00
2019-05-25T11:29:10.838Z,5.10
2019-05-25T11:31:56.504Z,3.50
2019-05-25T11:34:24.556Z,2.20
2019-05-25T11:37:03.205Z,2.00
2019-05-25T11:39:37.167Z,2.43
2019-05-25T11:42:12.524Z,2.40
2019-05-25T11:44:46.819Z,2.93
2019-05-25T11:47:21.554Z,3.93
2019-05-25T11:49:56.131Z,2.67
2019-05-25T11:52:34.510Z,2.70
2019-05-25T11:55:12.205Z,2.63
2019-05-25T11:57:45.999Z,2.80
2019-05-25T12:00:25.274Z,2.77
2019-05-25T12:02:56.344Z,4.30
2019-05-25T12:05:32.166Z,6.07
2019-05-25T12:08:06.359Z,6.90
2019-05-25T12:10:40.167Z,3.40
2019-05-25T12:13:14.106Z,3.60
2019-05-25T12:15:47.881Z,3.67
2019-05-25T12:18:22.432Z,3.63
2019-05-25T12:20:57.489Z,6.40
2019-05-25T12:23:32.395Z,4.87
2019-05-25T12:26:07.944Z,4.47
2019-05-25T12:28:43.056Z,3.53
2019-05-25T12:31:19.295Z,3.03
2019-05-25T12:33:54.468Z,3.37
2019-05-25T12:36:34.991Z,5.07
2019-05-25T12:39:06.911Z,4.33
2019-05-25T12:41:40.700Z,3.17
2019-05-25T12:44:15.929Z,3.33
2019-05-25T12:46:51.059Z,3.27
2019-05-25T12:49:25.047Z,2.90
2019-05-25T12:51:59.252Z,3.63
2019-05-25T12:54:34.557Z,4.03
2019-05-25T12:57:09.409Z,3.23
2019-05-25T12:59:43.578Z,5.47
2019-05-25T13:02:17.573Z,2.83
2019-05-25T13:04:51.859Z,3.40
2019-05-25T13:07:25.604Z,4.27
2019-05-25T13:10:00.139Z,4.37
2019-05-25T13:12:34.904Z,4.23
2019-05-25T13:15:09.735Z,2.97
2019-05-25T13:17:46.261Z,2.87
2019-05-25T13:20:20.185Z,2.40
2019-05-25T13:22:53.772Z,2.60
2019-05-25T13:25:32.521Z,3.20
2019-05-25T13:28:06.364Z,2.93
2019-05-25T13:30:40.640Z,2.97
2019-05-25T13:33:15.032Z,3.40
2019-05-25T13:35:49.738Z,5.47
2019-05-25T13:38:23.336Z,2.67
2019-05-25T13:40:57.031Z,4.37
2019-05-25T13:43:30.978Z,4.53
2019-05-25T13:46:05.594Z,3.07
2019-05-25T13:48:38.882Z,2.90
2019-05-25T13:51:12.733Z,3.20
2019-05-25T13:53:45.933Z,31.53
2019-05-25T13:56:20.010Z,3.17
2019-05-25T13:58:53.388Z,3.67
2019-05-25T14:01:28.711Z,4.27
2019-05-25T14:04:02.203Z,2.80
2019-05-25T14:06:36.130Z,3.43
2019-05-25T14:09:10.716Z,4.37
2019-05-25T14:11:43.834Z,4.20
2019-05-25T14:14:19.387Z,3.07
2019-05-25T14:16:54.263Z,8.37
2019-05-25T14:19:41.312Z,3.10
2019-05-25T14:22:19.778Z,3.07
2019-05-25T14:24:48.945Z,3.80
2019-05-25T14:27:22.243Z,3.10
2019-05-25T14:29:56.219Z,4.00
2019-05-25T14:32:29.940Z,3.57
2019-05-25T14:35:04.843Z,4.67
2019-05-25T14:37:38.981Z,3.30
2019-05-25T14:40:13.177Z,6.07
2019-05-25T14:42:47.139Z,4.27
2019-05-25T14:45:20.928Z,3.20
2019-05-25T14:47:55.345Z,3.33
2019-05-25T14:50:28.782Z,4.73
2019-05-25T14:53:02.924Z,5.30
2019-05-25T14:55:39.239Z,5.07
2019-05-25T14:58:12.966Z,4.50
2019-05-25T15:00:46.655Z,5.57
2019-05-25T15:03:20.949Z,2.90
2019-05-25T15:05:54.325Z,8.23
2019-05-25T15:08:28.865Z,4.23
2019-05-25T15:11:03.022Z,4.40
2019-05-25T15:13:39.758Z,3.90
2019-05-25T15:16:13.485Z,4.70
2019-05-25T15:18:54.734Z,4.03
2019-05-25T15:21:29.350Z,3.90
2019-05-25T15:24:03.468Z,5.70
2019-05-25T15:26:37.327Z,5.30
2019-05-25T15:29:11.703Z,3.77
2019-05-25T15:31:45.271Z,4.03
2019-05-25T15:34:19.655Z,4.40
2019-05-25T15:36:52.952Z,6.37
2019-05-25T15:39:27.427Z,4.03
2019-05-25T15:42:01.513Z,3.90
2019-05-25T15:44:35.418Z,4.73
2019-05-25T15:47:09.305Z,3.73
2019-05-25T15:49:42.969Z,5.27
2019-05-25T15:52:16.431Z,5.87
2019-05-25T15:54:49.784Z,3.97
2019-05-25T15:57:23.510Z,3.90
2019-05-25T15:59:57.398Z,5.13
2019-05-25T16:02:36.656Z,5.17
2019-05-25T16:05:06.905Z,3.30
2019-05-25T16:07:45.319Z,6.23
2019-05-25T16:10:19.764Z,3.70
2019-05-25T16:13:01.077Z,5.83
2019-05-25T16:15:34.252Z,7.27
2019-05-25T16:18:08.304Z,4.40
2019-05-25T16:20:41.756Z,4.03
2019-05-25T16:23:14.863Z,4.83
2019-05-25T16:25:48.461Z,4.00
2019-05-25T16:28:22.866Z,3.43
2019-05-25T16:30:56.526Z,5.57
2019-05-25T16:33:30.040Z,6.07
2019-05-25T16:36:04.249Z,3.60
2019-05-25T16:38:39.026Z,4.27
2019-05-25T16:41:12.669Z,5.00
2019-05-25T16:43:46.676Z,5.07
2019-05-25T16:46:20.894Z,4.70
2019-05-25T16:48:57.598Z,7.40
2019-05-25T16:51:32.016Z,5.57
2019-05-25T16:54:07.236Z,3.87
2019-05-25T16:56:46.859Z,3.93
2019-05-25T16:59:20.563Z,5.10
2019-05-25T17:01:56.500Z,4.23
2019-05-25T17:04:33.600Z,4.23
2019-05-25T17:07:07.969Z,5.40
2019-05-25T17:09:45.152Z,7.00
2019-05-25T17:12:21.591Z,4.20
2019-05-25T17:14:55.457Z,5.03
2019-05-25T17:17:29.231Z,10.37
2019-05-25T17:20:03.149Z,9.00
2019-05-25T17:22:37.004Z,7.37
2019-05-25T17:25:11.770Z,7.40
2019-05-25T17:27:45.698Z,7.13
2019-05-25T17:30:28.707Z,6.17
2019-05-25T17:33:02.924Z,5.30
2019-05-25T17:35:41.109Z,4.80
2019-05-25T17:38:15.809Z,6.87
2019-05-25T17:40:49.978Z,4.77
2019-05-25T17:43:24.564Z,5.20
2019-05-25T17:45:59.422Z,5.30
2019-05-25T17:48:33.970Z,5.40
2019-05-25T17:51:08.359Z,7.27
2019-05-25T17:53:43.155Z,7.80
2019-05-25T17:56:19.675Z,9.50
2019-05-25T17:58:53.861Z,9.33
2019-05-25T18:01:28.162Z,6.93
2019-05-25T18:04:07.011Z,8.77
2019-05-25T18:06:39.522Z,10.33
2019-05-25T18:09:13.646Z,9.40
2019-05-25T18:11:52.636Z,9.93
2019-05-25T18:14:31.902Z,7.90
2019-05-25T18:17:09.474Z,7.57
2019-05-25T18:19:44.114Z,6.50
2019-05-25T18:22:18.439Z,7.90
2019-05-25T18:24:53.000Z,9.87
2019-05-25T18:27:27.263Z,8.27
2019-05-25T18:30:07.229Z,5.40
2019-05-25T18:32:41.142Z,7.33
2019-05-25T18:35:16.189Z,6.83
2019-05-25T18:37:50.726Z,6.67
2019-05-25T18:40:26.908Z,5.93
2019-05-25T18:43:01.064Z,8.17
2019-05-25T18:45:35.148Z,9.10
2019-05-25T18:48:09.165Z,10.00
2019-05-25T18:50:44.046Z,6.53
2019-05-25T18:53:19.315Z,7.40
2019-05-25T18:55:56.421Z,4.83
2019-05-25T18:58:36.869Z,6.73
2019-05-25T19:01:18.189Z,5.53
2019-05-25T19:03:58.295Z,5.53
2019-05-25T19:06:40.443Z,8.37
2019-05-25T19:09:16.087Z,8.20
2019-05-25T19:11:50.220Z,6.63
2019-05-25T19:14:29.372Z,6.63
2019-05-25T19:17:03.654Z,6.90
2019-05-25T19:19:45.574Z,9.27
2019-05-25T19:22:16.736Z,11.90
2019-05-25T19:24:51.062Z,7.23
2019-05-25T19:27:26.736Z,7.73
2019-05-25T19:30:01.552Z,7.00
2019-05-25T19:32:35.451Z,8.43
2019-05-25T19:35:13.065Z,11.23
2019-05-25T19:37:47.878Z,6.63
2019-05-25T19:40:22.533Z,13.07
2019-05-25T19:42:56.392Z,15.73
2019-05-25T19:45:33.128Z,10.63
2019-05-25T19:48:06.931Z,8.93
2019-05-25T19:50:40.507Z,10.03
2019-05-25T19:53:14.642Z,7.80
2019-05-25T19:55:48.921Z,8.60
2019-05-25T19:58:23.007Z,6.70
2019-05-25T20:00:58.688Z,5.83
2019-05-25T20:03:34.183Z,6.90
2019-05-25T20:06:12.477Z,6.60
2019-05-25T20:08:46.363Z,7.63
2019-05-25T20:11:20.579Z,16.17
2019-05-25T20:13:56.321Z,14.83
2019-05-25T20:16:30.838Z,10.77
2019-05-25T20:19:05.063Z,9.43
2019-05-25T20:21:38.865Z,8.07
2019-05-25T20:24:13.824Z,8.30
2019-05-25T20:26:48.182Z,9.40
2019-05-25T20:29:22.020Z,6.57
2019-05-25T20:31:56.738Z,7.87
2019-05-25T20:34:32.807Z,5.50
2019-05-25T20:37:06.679Z,10.47
2019-05-25T20:39:41.863Z,5.70
2019-05-25T20:42:15.681Z,6.03
2019-05-25T20:44:51.818Z,5.60
2019-05-25T20:47:25.981Z,7.30
2019-05-25T20:49:59.842Z,6.10
2019-05-25T20:52:33.149Z,6.77
2019-05-25T20:55:09.371Z,6.10
2019-05-25T20:57:43.128Z,4.83
2019-05-25T21:00:23.840Z,10.73
2019-05-25T21:03:06.211Z,7.63
2019-05-25T21:05:48.488Z,5.63
2019-05-25T21:08:07.800Z,5.90
2019-05-25T21:10:41.692Z,5.13
2019-05-25T21:13:18.776Z,5.63
2019-05-25T21:15:52.775Z,5.33
2019-05-25T21:18:27.581Z,5.37
2019-05-25T21:21:03.368Z,6.03
2019-05-25T21:23:37.744Z,5.07
2019-05-25T21:26:11.757Z,5.17
2019-05-25T21:28:45.578Z,4.77
2019-05-25T21:31:23.476Z,7.43
2019-05-25T21:33:56.265Z,6.43
2019-05-25T21:36:30.480Z,5.87
2019-05-25T21:39:04.991Z,8.17
2019-05-25T21:41:39.508Z,7.63
2019-05-25T21:44:13.604Z,8.77
2019-05-25T21:46:47.793Z,8.70
2019-05-25T21:49:23.145Z,10.60
2019-05-25T21:51:58.191Z,12.07
2019-05-25T21:54:33.559Z,19.20
2019-05-25T21:57:07.365Z,12.27
2019-05-25T21:59:41.474Z,8.67
2019-05-25T22:02:15.288Z,8.80
2019-05-25T22:04:48.847Z,9.70
2019-05-25T22:07:23.472Z,11.30
2019-05-25T22:09:57.205Z,11.03
2019-05-25T22:12:30.610Z,13.47
2019-05-25T22:15:03.969Z,17.20
2019-05-25T22:17:38.025Z,20.33
2019-05-25T22:20:12.417Z,14.83
2019-05-25T22:22:52.305Z,12.27
2019-05-25T22:25:25.812Z,20.47
2019-05-25T22:27:59.861Z,17.90
2019-05-25T22:30:34.801Z,12.93
2019-05-25T22:33:08.178Z,14.80
2019-05-25T22:35:42.834Z,13.10
2019-05-25T22:38:17.107Z,12.10
2019-05-25T22:40:51.764Z,12.63
2019-05-25T22:43:26.533Z,15.47
2019-05-25T22:46:00.539Z,14.13
2019-05-25T22:48:35.018Z,16.03
2019-05-25T22:51:09.164Z,14.57
2019-05-25T22:53:43.014Z,17.50
2019-05-25T22:56:16.559Z,14.53
2019-05-25T22:58:50.267Z,14.10
2019-05-25T23:01:24.276Z,16.67
2019-05-25T23:03:58.181Z,16.87
2019-05-25T23:06:32.683Z,14.67
2019-05-25T23:09:07.202Z,15.13
2019-05-25T23:11:41.068Z,15.13
2019-05-25T23:14:14.575Z,12.50
2019-05-25T23:16:48.108Z,16.10
2019-05-25T23:19:22.275Z,14.67
2019-05-25T23:21:56.267Z,16.13
2019-05-25T23:24:30.052Z,14.53
2019-05-25T23:27:04.098Z,20.30
2019-05-25T23:29:37.494Z,15.60
2019-05-25T23:32:12.043Z,18.57
2019-05-25T23:34:45.073Z,15.40
2019-05-25T23:37:18.987Z,21.07
2019-05-25T23:39:52.459Z,18.80
2019-05-25T23:42:27.828Z,19.67
2019-05-25T23:45:01.470Z,16.87
2019-05-25T23:47:34.662Z,17.07
2019-05-25T23:50:08.511Z,21.63
2019-05-25T23:52:41.947Z,22.77
2019-05-25T23:55:15.261Z,19.60
2019-05-25T23:57:48.617Z,18.27
